This is the latest recevied weather packets stored in our database for station/object N4WFF. If no packets are shown the sender has not sent any weather packets the latest 10 day(s).
| Time | Temp. | Humidity | Pressure | Rain* | Wind** | Luminosity | Snow |
|---|---|---|---|---|---|---|---|
| 1777588555 | 22.78° C | 79% | 1011.2 hPa | 0 mm | - | 104 W/m² | - |
| 1777588255 | 23.33° C | 79% | 1011.3 hPa | 0 mm | - | 135 W/m² | - |
| 1777587956 | 23.33° C | 79% | 1011.2 hPa | 0 mm | - | 234 W/m² | - |
| 1777587655 | 23.33° C | 78% | 1011.2 hPa | 0 mm | - | 187 W/m² | - |
| 1777587356 | 23.33° C | 78% | 1011.1 hPa | 0 mm | - | 261 W/m² | - |
| 1777587055 | 23.33° C | 79% | 1011 hPa | 0 mm | - | 235 W/m² | - |
| 1777586755 | 22.78° C | 80% | 1011 hPa | 0 mm | - | 193 W/m² | - |
| 1777586455 | 23.33° C | 80% | 1011.1 hPa | 0 mm | - | 305 W/m² | - |
| 1777586155 | 23.33° C | 79% | 1011.3 hPa | 0 mm | - | 100 W/m² | - |
| 1777585856 | 23.33° C | 79% | 1011.4 hPa | 0 mm | - | 75 W/m² | - |
| 1777585555 | 23.89° C | 78% | 1011.5 hPa | 0 mm | - | 79 W/m² | - |
| 1777585260 | 23.89° C | 77% | 1011.3 hPa | 0 mm | - | 141 W/m² | - |
| 1777584956 | 23.89° C | 77% | 1011.3 hPa | 0 mm | - | 137 W/m² | - |
| 1777584656 | 23.89° C | 76% | 1011.3 hPa | 0 mm | - | 162 W/m² | - |
| 1777584355 | 24.44° C | 74% | 1011.2 hPa | 0 mm | - | 195 W/m² | - |
| 1777584059 | 23.89° C | 76% | 1011.2 hPa | 0 mm | - | 294 W/m² | - |
| 1777583755 | 23.89° C | 77% | 1011.2 hPa | 0 mm | - | 496 W/m² | - |
| 1777583455 | 23.89° C | 76% | 1011.3 hPa | 0 mm | - | 265 W/m² | - |
| 1777583156 | 23.89° C | 76% | 1011.4 hPa | 0 mm | - | 278 W/m² | - |
| 1777582856 | 23.89° C | 75% | 1011.5 hPa | 0 mm | - | 215 W/m² | - |
| 1777582556 | 23.89° C | 77% | 1011.4 hPa | 0 mm | - | 436 W/m² | - |
| 1777582256 | 23.89° C | 77% | 1011.4 hPa | 0 mm | - | 496 W/m² | - |
| 1777581955 | 23.89° C | 77% | 1011.5 hPa | 0 mm | - | 327 W/m² | - |
| 1777581655 | 24.44° C | 76% | 1011.7 hPa | 0 mm | - | 162 W/m² | - |
| 1777581356 | 24.44° C | 75% | 1011.6 hPa | 0 mm | - | 138 W/m² | - |
* Rain latest hour (hover to see other rain measurements)
** Current wind speed in m/s (hover to see current wind gust speed)